Time;durP1;ratioP1;P1;durP2;ratioP2;P2;SDS_P1;SDS_P2;PMS_P1;PMS_P2;Temp;Humidity;BMP_temperature;BMP_pressure;BME280_temperature;BME280_humidity;BME280_pressure;Samples;Min_cycle;Max_cycle;Signal;HPM_P1;HPM_P2
2023/12/13 00:14:45;;;;;;;;;;;;;;;;;;;;;
2023/12/13 00:17:48;;;;;;;;;;;;;;;;;;;;;
2023/12/13 00:20:36;;;;;;;111.53;19.30;;;7.40;99.90;;;;;;4834701;29;20030;-95
2023/12/13 00:23:23;;;;;;;;;;;;;;;;;;;;;
2023/12/13 00:26:20;;;;;;;50.58;16.80;;;7.30;99.90;;;;;;4807913;29;20093;-95
2023/12/13 00:29:01;;;;;;;54.47;16.40;;;6.40;99.90;;;;;;4770063;29;20088;-95
2023/12/13 00:35:19;;;;;;;61.92;17.95;;;7.40;99.90;;;;;;4868132;29;20029;-95
2023/12/13 00:37:49;;;;;;;48.10;17.17;;;7.20;99.90;;;;;;4864489;29;20053;-96
2023/12/13 00:40:34;;;;;;;63.23;18.70;;;7.40;99.90;;;;;;4856160;29;20110;-96
2023/12/13 00:43:23;;;;;;;59.05;18.15;;;8.00;99.90;;;;;;4856900;29;20054;-96
2023/12/13 00:52:32;;;;;;;68.15;18.30;;;7.50;99.90;;;;;;4895879;23;20076;-96
2023/12/13 00:55:19;;;;;;;58.80;18.33;;;7.30;99.90;;;;;;4866444;29;20058;-96
2023/12/13 00:57:56;;;;;;;60.07;19.47;;;8.20;99.90;;;;;;4858535;29;20045;-96
2023/12/13 01:05:36;;;;;;;52.30;18.70;;;7.30;99.90;;;;;;1076187;23;20302;-94
2023/12/13 01:11:23;;;;;;;45.27;16.93;;;6.80;99.90;;;;;;4856785;29;20050;-96
2023/12/13 01:13:52;;;;;;;48.55;18.85;;;7.30;99.90;;;;;;4857785;29;20401;-96
2023/12/13 01:16:36;;;;;;;44.53;16.50;;;6.10;99.90;;;;;;4857523;29;20056;-96
2023/12/13 01:19:05;;;;;;;;;;;7.20;99.90;;;;;;4880103;23;20045;-96
2023/12/13 01:21:32;;;;;;;45.83;17.17;;;8.90;99.90;;;;;;4856975;29;20474;-96
2023/12/13 01:24:27;;;;;;;48.00;18.03;;;7.20;99.90;;;;;;4891121;24;20118;-96
2023/12/13 01:26:53;;;;;;;44.53;16.53;;;7.20;99.90;;;;;;4877631;29;20054;-96
2023/12/13 01:32:51;;;;;;;48.23;16.43;;;7.90;99.90;;;;;;4895290;23;20536;-96
2023/12/13 01:35:21;;;;;;;46.33;16.07;;;7.10;99.90;;;;;;4860432;29;20081;-96
2023/12/13 01:37:50;;;;;;;40.70;15.50;;;7.60;99.90;;;;;;4860686;29;20056;-96
2023/12/13 01:40:20;;;;;;;50.73;16.67;;;6.90;99.90;;;;;;4856927;29;20120;-96
2023/12/13 01:42:46;;;;;;;54.77;16.47;;;7.10;99.90;;;;;;4860894;29;20057;-96
2023/12/13 01:48:22;;;;;;;50.08;15.27;;;7.20;99.90;;;;;;4988310;23;20066;-96
2023/12/13 01:51:05;;;;;;;42.60;14.53;;;7.10;99.90;;;;;;4854524;29;20049;-96
2023/12/13 01:53:37;;;;;;;43.33;15.27;;;7.20;99.90;;;;;;4853741;29;20051;-95
2023/12/13 02:00:05;;;;;;;;;;;;;;;;;;;;;
2023/12/13 02:06:23;;;;;;;33.57;12.87;;;7.20;99.90;;;;;;4873956;29;20091;-95
2023/12/13 02:17:22;;;;;;;29.53;11.97;;;7.10;99.90;;;;;;4798548;29;20058;-96
2023/12/13 02:20:23;;;;;;;38.60;12.50;;;7.20;99.90;;;;;;4762424;30;20063;-96
2023/12/13 02:23:14;;;;;;;33.97;11.33;;;7.30;99.90;;;;;;4760573;30;20060;-96
2023/12/13 02:26:16;;;;;;;;;;;;;;;;;;;;;
2023/12/13 02:29:05;;;;;;;33.13;11.37;;;7.10;99.90;;;;;;4839403;24;20058;-96
2023/12/13 02:35:33;;;;;;;31.53;11.53;;;6.50;99.90;;;;;;5017641;23;20080;-96
2023/12/13 02:41:25;;;;;;;32.67;12.43;;;7.10;99.90;;;;;;4850709;29;20074;-96
2023/12/13 02:43:53;;;;;;;44.63;12.93;;;8.40;99.90;;;;;;4851515;29;20053;-96
2023/12/13 02:46:29;;;;;;;;;;;;;;;;;;;;;
2023/12/13 02:49:37;;;;;;;42.50;12.27;;;7.00;99.90;;;;;;4851715;23;20057;-96
2023/12/13 02:52:36;;;;;;;36.80;12.27;;;7.20;99.90;;;;;;4850193;29;20136;-96
2023/12/13 02:55:20;;;;;;;31.70;11.47;;;7.70;99.90;;;;;;4847656;29;20054;-96
2023/12/13 03:00:59;;;;;;;34.90;11.93;;;7.70;99.90;;;;;;5142881;23;20057;-96
2023/12/13 03:03:48;;;;;;;38.33;11.60;;;8.80;99.90;;;;;;4856366;24;20058;-96
2023/12/13 03:06:24;;;;;;;;;;;;;;;;;;;;;
2023/12/13 03:09:22;;;;;;;42.33;13.70;;;8.20;99.90;;;;;;4806728;29;20035;-96
2023/12/13 03:12:15;;;;;;;51.40;16.70;;;7.90;99.90;;;;;;4823199;29;20298;-96
2023/12/13 03:14:43;;;;;;;61.58;18.02;;;6.20;99.90;;;;;;4871418;29;20065;-95
2023/12/13 03:24:04;;;;;;;64.47;17.60;;;7.20;99.90;;;;;;4835651;29;20061;-96
2023/12/13 03:26:50;;;;;;;;;;;;;;;;;;;;;
2023/12/13 03:42:00;;;;;;;;;;;;;;;;;;;;;
2023/12/13 03:45:23;;;;;;;56.57;18.40;;;7.20;99.90;;;;;;4878544;29;20048;-96
2023/12/13 03:48:20;;;;;;;50.63;18.43;;;8.20;99.90;;;;;;4783985;30;20051;-96
2023/12/13 03:51:02;;;;;;;58.50;18.50;;;7.20;99.90;;;;;;4780351;30;20143;-96
2023/12/13 03:53:31;;;;;;;57.43;17.87;;;6.20;99.90;;;;;;4781424;30;20055;-96
2023/12/13 03:56:12;;;;;;;52.23;17.73;;;7.60;99.90;;;;;;4788523;29;20523;-96
2023/12/13 04:01:36;;;;;;;48.20;17.23;;;6.30;99.90;;;;;;4863301;29;20120;-96
2023/12/13 04:04:17;;;;;;;54.53;17.27;;;7.30;99.90;;;;;;4859483;29;20041;-95
2023/12/13 04:06:49;;;;;;;52.93;17.77;;;7.20;99.90;;;;;;4854499;29;20060;-96
2023/12/13 04:09:19;;;;;;;53.33;17.87;;;7.60;99.90;;;;;;4852155;29;20056;-96
2023/12/13 04:11:45;;;;;;;55.87;18.70;;;7.20;99.90;;;;;;4852666;29;20049;-96
2023/12/13 04:14:14;;;;;;;56.03;17.97;;;7.30;99.90;;;;;;4849913;29;20140;-96
2023/12/13 04:16:40;;;;;;;48.53;17.53;;;7.20;99.90;;;;;;4849893;29;20049;-96
2023/12/13 04:19:05;;;;;;;67.23;18.03;;;7.30;99.90;;;;;;4861112;24;20049;-96
2023/12/13 04:21:41;;;;;;;53.93;17.40;;;7.90;99.90;;;;;;4862229;29;20093;-96
2023/12/13 04:24:12;;;;;;;63.93;17.27;;;7.10;99.90;;;;;;4846034;29;20050;-96
2023/12/13 04:26:42;;;;;;;54.00;17.00;;;7.20;99.90;;;;;;4846383;29;20085;-96
2023/12/13 04:29:18;;;;;;;61.70;18.93;;;8.80;99.90;;;;;;4845521;29;20049;-96
2023/12/13 04:32:39;;;;;;;68.53;18.88;;;8.40;99.90;;;;;;4849293;24;20047;-96
2023/12/13 04:38:42;;;;;;;62.13;17.33;;;8.10;99.90;;;;;;4818287;29;20058;-96
2023/12/13 04:41:29;;;;;;;59.42;17.67;;;8.10;99.90;;;;;;4828552;29;20050;-95
2023/12/13 04:44:49;;;;;;;48.33;17.87;;;6.90;99.90;;;;;;4841919;29;20054;-96
2023/12/13 04:53:59;;;;;;;49.67;17.33;;;7.40;99.90;;;;;;4848022;29;20060;-96
2023/12/13 05:59:23;;;;;;;44.77;14.93;;;7.40;99.90;;;;;;4856392;29;20132;-96
2023/12/13 06:01:55;;;;;;;45.93;13.33;;;7.30;99.90;;;;;;4847497;29;20050;-96
2023/12/13 06:04:50;;;;;;;;;;;;;;;;;;;;;
2023/12/13 06:07:34;;;;;;;52.87;14.00;;;7.80;99.90;;;;;;4873971;24;20087;-96
2023/12/13 06:10:44;;;;;;;;;;;;;;;;;;;;;
2023/12/13 06:16:12;;;;;;;48.67;14.97;;;7.50;99.90;;;;;;4912115;23;20057;-96
2023/12/13 06:18:49;;;;;;;;;;;;;;;;;;;;;
2023/12/13 06:21:36;;;;;;;55.63;15.93;;;6.60;99.90;;;;;;4878879;29;20082;-96
2023/12/13 06:40:17;;;;;;;47.70;15.27;;;7.40;99.90;;;;;;4849070;29;20087;-96
2023/12/13 06:42:45;;;;;;;47.03;15.00;;;7.60;99.90;;;;;;4859648;23;20118;-95
2023/12/13 06:45:38;;;;;;;44.47;15.30;;;8.50;99.90;;;;;;4881705;24;20097;-96
2023/12/13 06:48:35;;;;;;;44.50;14.82;;;7.20;99.90;;;;;;4843775;29;20133;-96
2023/12/13 06:53:44;;;;;;;42.97;14.68;;;7.40;99.90;;;;;;4885430;24;20454;-90
2023/12/13 07:02:20;;;;;;;39.85;13.90;;;7.90;99.90;;;;;;5177370;23;20068;-92
2023/12/13 07:05:10;;;;;;;37.13;12.47;;;7.00;99.90;;;;;;4932176;24;20061;-91
2023/12/13 07:20:12;;;;;;;35.60;12.73;;;6.80;99.90;;;;;;4863505;29;20520;-87
2023/12/13 07:22:37;;;;;;;41.25;13.90;;;8.70;99.90;;;;;;4846750;29;20659;-85
2023/12/13 07:25:21;;;;;;;38.63;14.73;;;7.30;99.90;;;;;;4846024;29;20064;-85
2023/12/13 07:27:47;;;;;;;;;;;7.20;99.90;;;;;;4847235;29;20054;-85
2023/12/13 07:30:13;;;;;;;41.87;14.53;;;8.70;99.90;;;;;;4845002;29;19980;-86
2023/12/13 07:32:43;;;;;;;40.23;14.30;;;7.40;99.90;;;;;;4863026;29;20041;-85
2023/12/13 07:35:10;;;;;;;41.13;14.37;;;7.60;99.90;;;;;;4845983;29;20079;-84
2023/12/13 07:37:36;;;;;;;44.93;14.77;;;8.20;99.90;;;;;;4845503;29;20045;-85
2023/12/13 07:40:03;;;;;;;41.00;14.80;;;7.50;99.90;;;;;;4844416;29;20490;-85
2023/12/13 07:42:31;;;;;;;35.27;14.87;;;7.40;99.90;;;;;;4845337;29;20406;-85
2023/12/13 07:45:18;;;;;;;39.45;14.80;;;7.40;99.90;;;;;;4846042;29;20558;-85
2023/12/13 07:47:46;;;;;;;51.27;14.50;;;7.30;99.90;;;;;;4846508;29;20144;-85
2023/12/13 07:50:12;;;;;;;38.38;14.80;;;7.50;99.90;;;;;;4861609;29;20049;-85
2023/12/13 07:52:37;;;;;;;37.70;14.45;;;7.40;99.90;;;;;;4847678;29;20041;-85
2023/12/13 07:55:03;;;;;;;40.77;14.70;;;7.90;99.90;;;;;;4847915;29;20041;-86
2023/12/13 07:57:29;;;;;;;36.58;14.77;;;7.50;99.90;;;;;;4846146;29;20049;-86
2023/12/13 07:59:54;;;;;;;43.50;14.75;;;8.20;99.90;;;;;;4846670;29;20061;-85
2023/12/13 08:02:24;;;;;;;47.30;15.60;;;7.50;99.90;;;;;;4847794;29;20058;-88
2023/12/13 08:04:50;;;;;;;35.57;14.67;;;7.50;99.90;;;;;;4845168;29;20046;-86
2023/12/13 08:07:16;;;;;;;56.25;17.92;;;7.40;99.90;;;;;;4845178;29;20049;-86
2023/12/13 08:09:43;;;;;;;51.93;18.23;;;8.70;99.90;;;;;;4846373;29;20098;-86
2023/12/13 08:12:08;;;;;;;52.85;18.80;;;8.40;99.90;;;;;;4844638;29;20052;-86
2023/12/13 08:14:34;;;;;;;66.43;19.17;;;8.70;99.90;;;;;;4845596;29;20058;-86
2023/12/13 08:17:10;;;;;;;71.40;19.08;;;7.50;99.90;;;;;;4861818;29;20041;-85
2023/12/13 08:19:36;;;;;;;58.13;18.10;;;7.50;99.90;;;;;;4829201;29;20053;-85
2023/12/13 08:22:03;;;;;;;54.47;18.63;;;8.30;99.90;;;;;;4844831;29;20101;-85
2023/12/13 08:24:29;;;;;;;55.83;18.90;;;7.60;99.90;;;;;;4843608;29;20052;-87
2023/12/13 08:27:10;;;;;;;47.20;17.02;;;8.00;99.90;;;;;;4844897;29;20049;-86
2023/12/13 08:29:35;;;;;;;45.42;17.15;;;7.60;99.90;;;;;;4842010;29;20085;-87
2023/12/13 08:32:01;;;;;;;53.33;17.63;;;7.40;99.90;;;;;;4841044;29;20069;-88
2023/12/13 08:34:27;;;;;;;44.00;16.33;;;9.20;99.90;;;;;;4845377;29;20513;-88
2023/12/13 08:37:23;;;;;;;45.70;17.43;;;8.60;99.90;;;;;;4844535;29;20041;-88
2023/12/13 08:39:52;;;;;;;42.03;16.40;;;8.20;99.90;;;;;;4844585;29;20054;-87
2023/12/13 08:42:19;;;;;;;44.80;17.00;;;8.20;99.90;;;;;;4844840;29;20120;-86
2023/12/13 08:44:44;;;;;;;39.13;16.10;;;7.70;99.90;;;;;;4849740;29;20132;-89
2023/12/13 08:47:10;;;;;;;36.47;15.53;;;8.00;99.90;;;;;;4843279;29;20167;-86
2023/12/13 08:49:36;;;;;;;39.80;14.63;;;8.50;99.90;;;;;;4845380;29;20046;-86
2023/12/13 08:52:01;;;;;;;35.20;14.23;;;8.40;99.90;;;;;;4844670;29;20071;-86
2023/12/13 08:54:27;;;;;;;41.58;14.55;;;7.60;99.90;;;;;;4844270;29;20046;-86
2023/12/13 08:56:53;;;;;;;37.83;14.33;;;7.70;99.90;;;;;;4844650;29;20183;-87
2023/12/13 08:59:19;;;;;;;35.30;14.02;;;7.50;99.90;;;;;;4844361;29;20497;-86
2023/12/13 09:01:59;;;;;;;45.20;17.63;;;7.70;99.90;;;;;;4861268;29;20064;-86
2023/12/13 09:04:25;;;;;;;34.17;14.40;;;7.50;99.90;;;;;;4844267;29;20041;-86
2023/12/13 09:06:51;;;;;;;34.15;13.77;;;7.70;99.90;;;;;;4844037;29;20065;-87
2023/12/13 09:09:16;;;;;;;45.72;14.90;;;7.70;99.90;;;;;;4845077;29;20052;-85
2023/12/13 09:11:42;;;;;;;44.00;14.30;;;7.70;99.90;;;;;;4861384;29;20537;-85
2023/12/13 09:14:09;;;;;;;48.38;15.80;;;9.10;99.90;;;;;;4850841;29;20057;-85
2023/12/13 09:16:35;;;;;;;48.83;17.33;;;7.70;99.90;;;;;;4885388;29;20044;-85
2023/12/13 09:19:01;;;;;;;51.20;16.17;;;7.90;99.90;;;;;;4848084;29;20049;-85
2023/12/13 09:21:26;;;;;;;46.90;16.10;;;8.40;99.90;;;;;;4845532;29;20055;-85
2023/12/13 09:23:52;;;;;;;51.72;16.63;;;8.30;99.90;;;;;;4844481;29;20049;-85
2023/12/13 09:26:18;;;;;;;44.30;16.05;;;8.90;99.90;;;;;;4843787;29;20061;-85
2023/12/13 09:28:44;;;;;;;41.70;15.15;;;7.90;99.90;;;;;;4843803;29;20402;-85
2023/12/13 09:31:11;;;;;;;41.08;15.45;;;8.10;99.90;;;;;;4844175;29;20486;-86
2023/12/13 09:33:37;;;;;;;44.95;14.90;;;7.90;99.90;;;;;;4845375;29;20061;-85
2023/12/13 09:36:03;;;;;;;38.47;13.98;;;8.00;99.90;;;;;;4860153;29;20056;-85
2023/12/13 09:38:30;;;;;;;44.67;14.13;;;8.00;99.90;;;;;;4844176;29;20057;-85
2023/12/13 09:40:56;;;;;;;34.53;12.90;;;9.20;99.90;;;;;;4844500;29;20057;-87
2023/12/13 09:43:23;;;;;;;35.58;13.35;;;8.00;99.90;;;;;;4844095;29;20471;-85
2023/12/13 09:45:53;;;;;;;28.98;12.32;;;8.00;99.90;;;;;;4844390;29;20061;-88
2023/12/13 09:48:22;;;;;;;35.90;13.10;;;8.90;99.90;;;;;;4840909;29;20049;-91
2023/12/13 09:50:53;;;;;;;33.17;13.48;;;8.10;99.90;;;;;;4825911;29;20058;-88
2023/12/13 09:53:21;;;;;;;28.00;12.10;;;8.20;99.90;;;;;;4825444;29;20069;-91
2023/12/13 09:55:47;;;;;;;30.55;12.13;;;8.20;99.90;;;;;;4826067;29;20046;-85
2023/12/13 09:58:15;;;;;;;32.83;14.33;;;9.20;99.90;;;;;;4824596;29;20483;-87
2023/12/13 10:00:41;;;;;;;30.10;12.45;;;9.40;99.90;;;;;;4826208;29;20054;-86
2023/12/13 10:03:10;;;;;;;36.63;12.70;;;8.20;99.90;;;;;;4825427;29;20057;-86
2023/12/13 10:05:40;;;;;;;45.57;15.87;;;8.30;99.90;;;;;;4859590;29;20049;-86
2023/12/13 10:08:06;;;;;;;36.22;14.32;;;8.40;99.90;;;;;;4845969;29;20057;-85
2023/12/13 10:10:32;;;;;;;50.30;16.33;;;8.40;99.90;;;;;;4844840;29;20049;-86
2023/12/13 10:12:59;;;;;;;32.00;14.73;;;8.40;99.90;;;;;;4844083;29;20051;-86
2023/12/13 10:15:31;;;;;;;41.83;14.73;;;8.40;99.90;;;;;;4841745;29;20104;-86
2023/12/13 10:17:58;;;;;;;35.60;14.30;;;8.60;99.90;;;;;;4843953;29;20053;-86
2023/12/13 10:20:25;;;;;;;35.30;13.93;;;8.50;99.90;;;;;;4844432;29;20061;-87
2023/12/13 10:22:51;;;;;;;32.97;14.15;;;8.60;99.90;;;;;;4846067;29;20053;-87
2023/12/13 10:25:22;;;;;;;28.67;14.48;;;8.50;99.90;;;;;;4844833;29;20050;-88
2023/12/13 10:27:48;;;;;;;32.17;14.05;;;8.60;99.90;;;;;;4844171;29;20462;-87
2023/12/13 10:30:14;;;;;;;29.55;14.43;;;8.60;99.90;;;;;;4844232;29;20081;-86
2023/12/13 10:32:42;;;;;;;38.03;14.55;;;8.60;99.90;;;;;;4843390;29;20091;-86
2023/12/13 10:35:09;;;;;;;37.63;14.95;;;8.60;99.90;;;;;;4844035;29;20050;-86
2023/12/13 10:37:35;;;;;;;35.42;14.68;;;8.70;99.90;;;;;;4844143;29;20525;-86
2023/12/13 10:40:03;;;;;;;29.88;13.25;;;8.70;99.90;;;;;;4843325;29;20061;-86
2023/12/13 10:42:29;;;;;;;31.00;14.45;;;8.70;99.90;;;;;;4842356;29;20128;-88
2023/12/13 10:44:55;;;;;;;30.95;14.40;;;8.80;99.90;;;;;;4844125;29;20057;-87
2023/12/13 10:47:26;;;;;;;32.72;14.88;;;10.10;99.90;;;;;;4843256;29;20057;-87
2023/12/13 10:49:54;;;;;;;31.17;14.50;;;8.80;99.90;;;;;;4844469;29;20042;-87
2023/12/13 10:52:21;;;;;;;31.05;14.30;;;9.00;99.90;;;;;;4839995;29;20052;-90
2023/12/13 10:54:52;;;;;;;28.98;13.98;;;9.50;99.90;;;;;;4824794;29;20050;-89
2023/12/13 10:57:18;;;;;;;34.20;14.10;;;9.00;99.90;;;;;;4825713;29;20131;-87
2023/12/13 10:59:46;;;;;;;34.72;14.73;;;9.00;99.90;;;;;;4825839;29;20484;-87
2023/12/13 11:02:16;;;;;;;33.28;14.43;;;9.00;99.90;;;;;;4828763;29;20050;-87
2023/12/13 11:04:52;;;;;;;34.90;14.73;;;9.10;99.90;;;;;;4839131;29;20041;-87
2023/12/13 11:07:17;;;;;;;36.42;15.32;;;8.80;99.90;;;;;;4832511;29;20054;-87
2023/12/13 11:09:51;;;;;;;36.80;15.73;;;10.10;99.90;;;;;;4838405;29;20490;-87
2023/12/13 11:12:20;;;;;;;32.58;14.25;;;9.10;99.90;;;;;;4843515;29;20057;-86
2023/12/13 11:14:52;;;;;;;28.98;14.55;;;9.10;99.90;;;;;;4843797;29;20599;-86
2023/12/13 11:17:19;;;;;;;31.90;14.90;;;9.30;99.90;;;;;;4846398;29;20053;-86
2023/12/13 11:19:46;;;;;;;32.22;14.60;;;9.20;99.90;;;;;;4862515;29;20045;-86
2023/12/13 11:22:12;;;;;;;31.98;14.73;;;9.30;99.90;;;;;;4845243;29;20058;-86
2023/12/13 11:24:40;;;;;;;34.75;13.82;;;9.20;99.90;;;;;;4846784;29;20049;-87
2023/12/13 11:27:10;;;;;;;28.08;13.02;;;9.30;99.90;;;;;;4845836;29;20490;-87
2023/12/13 11:29:35;;;;;;;33.03;14.97;;;10.40;99.90;;;;;;4862388;29;20097;-87
2023/12/13 11:32:03;;;;;;;29.63;13.37;;;9.30;99.90;;;;;;4846498;29;20057;-86
2023/12/13 11:34:32;;;;;;;31.87;14.07;;;9.30;99.90;;;;;;4845809;29;20064;-88
2023/12/13 11:37:08;;;;;;;27.30;13.50;;;9.50;99.90;;;;;;4846105;29;20164;-87
2023/12/13 11:39:35;;;;;;;29.93;13.93;;;10.40;99.90;;;;;;4846978;29;20061;-87
2023/12/13 11:42:09;;;;;;;26.37;13.37;;;10.60;99.90;;;;;;4845118;29;20128;-87
2023/12/13 11:44:42;;;;;;;27.08;12.90;;;9.40;99.90;;;;;;4846245;29;20061;-90
2023/12/13 11:47:34;;;;;;;33.33;13.45;;;10.00;99.90;;;;;;4846187;29;20455;-84
2023/12/13 11:50:00;;;;;;;27.67;13.75;;;10.40;99.90;;;;;;4842011;29;20066;-87
2023/12/13 11:52:32;;;;;;;26.67;13.45;;;10.70;99.90;;;;;;4845877;29;20487;-85
2023/12/13 11:55:11;;;;;;;28.65;13.50;;;9.30;99.90;;;;;;4845758;29;20474;-86
2023/12/13 11:57:38;;;;;;;29.40;13.73;;;10.90;99.90;;;;;;4845597;29;20109;-86
2023/12/13 12:00:05;;;;;;;28.65;13.75;;;9.50;99.90;;;;;;4845948;29;20053;-86
2023/12/13 12:02:31;;;;;;;29.30;14.45;;;9.50;99.90;;;;;;4846003;29;20174;-86
2023/12/13 12:05:01;;;;;;;28.67;14.73;;;10.80;99.90;;;;;;4845613;29;20118;-86
2023/12/13 12:07:27;;;;;;;29.85;14.52;;;10.50;99.90;;;;;;4863446;29;20190;-86
2023/12/13 12:09:55;;;;;;;27.77;13.93;;;9.50;99.90;;;;;;4845363;29;20844;-85
2023/12/13 12:12:24;;;;;;;36.70;15.63;;;10.20;99.90;;;;;;4845975;29;20050;-86
2023/12/13 12:14:50;;;;;;;27.50;13.75;;;10.30;99.90;;;;;;4851516;29;20140;-84
2023/12/13 12:17:19;;;;;;;29.27;14.70;;;9.60;99.90;;;;;;4868269;29;20081;-86
2023/12/13 12:19:46;;;;;;;29.23;14.45;;;9.50;99.90;;;;;;4850117;29;20053;-85
2023/12/13 12:22:12;;;;;;;30.90;14.30;;;10.10;99.90;;;;;;4848047;29;20498;-86
2023/12/13 12:24:38;;;;;;;28.13;14.38;;;9.50;99.90;;;;;;4845258;29;20136;-85
2023/12/13 12:27:09;;;;;;;28.42;13.68;;;9.70;99.90;;;;;;4845707;29;20053;-86
2023/12/13 12:29:34;;;;;;;28.38;14.38;;;9.50;99.90;;;;;;4845266;29;20071;-85
2023/12/13 12:32:00;;;;;;;31.42;13.93;;;9.80;99.90;;;;;;4844709;29;20049;-86
2023/12/13 12:34:26;;;;;;;25.80;12.93;;;9.40;99.90;;;;;;4861977;29;20498;-86
2023/12/13 12:37:07;;;;;;;28.42;14.27;;;9.40;99.90;;;;;;4862358;29;20053;-85
2023/12/13 12:39:33;;;;;;;27.40;13.52;;;9.40;99.90;;;;;;4843837;29;20056;-86
2023/12/13 12:41:59;;;;;;;31.35;14.90;;;10.70;99.90;;;;;;4861044;29;20053;-85
2023/12/13 12:44:25;;;;;;;25.38;12.50;;;9.30;99.90;;;;;;4861960;29;20109;-85
2023/12/13 12:46:51;;;;;;;28.38;13.25;;;9.60;99.90;;;;;;4845325;29;20110;-86
2023/12/13 12:49:18;;;;;;;26.92;12.75;;;9.40;99.90;;;;;;4845051;29;20418;-86
2023/12/13 12:51:44;;;;;;;28.25;12.70;;;10.10;99.90;;;;;;4842030;29;20078;-86
2023/12/13 12:54:10;;;;;;;24.98;11.30;;;9.80;99.90;;;;;;4825680;29;20101;-86
2023/12/13 12:56:51;;;;;;;26.13;13.07;;;9.30;99.90;;;;;;4826847;29;20478;-85
2023/12/13 12:59:17;;;;;;;27.05;12.50;;;9.30;99.90;;;;;;4825988;29;20083;-86
2023/12/13 13:01:43;;;;;;;25.13;11.98;;;10.40;99.90;;;;;;4826699;29;20038;-86
2023/12/13 13:04:16;;;;;;;28.52;13.50;;;9.30;99.90;;;;;;4826837;29;20113;-86
2023/12/13 13:06:42;;;;;;;27.42;12.63;;;9.30;99.90;;;;;;4835432;29;20053;-85
2023/12/13 13:09:08;;;;;;;28.48;13.15;;;10.30;99.90;;;;;;4844046;29;20045;-85
2023/12/13 13:11:34;;;;;;;28.92;12.93;;;10.40;99.90;;;;;;4861346;29;20048;-86
2023/12/13 13:14:04;;;;;;;30.33;13.05;;;10.10;99.90;;;;;;4843736;29;20098;-86
2023/12/13 13:16:33;;;;;;;27.88;13.45;;;10.20;99.90;;;;;;4841911;29;20081;-86
2023/12/13 13:18:59;;;;;;;27.13;12.90;;;9.20;99.90;;;;;;4841340;29;20135;-85
2023/12/13 13:21:27;;;;;;;33.95;13.75;;;9.20;99.90;;;;;;4840869;29;20105;-85
2023/12/13 13:23:52;;;;;;;26.60;13.50;;;9.20;99.90;;;;;;4841105;29;20064;-85
2023/12/13 13:26:18;;;;;;;32.80;13.90;;;10.20;99.90;;;;;;4842013;29;20057;-85
2023/12/13 13:28:44;;;;;;;29.35;13.43;;;10.60;99.90;;;;;;4840369;29;20415;-85
2023/12/13 13:31:11;;;;;;;28.92;13.55;;;9.20;99.90;;;;;;4837793;29;20467;-85
2023/12/13 13:33:38;;;;;;;36.50;15.40;;;9.20;99.90;;;;;;4824820;29;20093;-86
2023/12/13 13:36:08;;;;;;;27.23;12.50;;;9.10;99.90;;;;;;4831041;29;20050;-86
2023/12/13 13:38:33;;;;;;;29.30;14.18;;;9.20;99.90;;;;;;4847599;29;20121;-86
2023/12/13 13:41:02;;;;;;;29.80;13.30;;;9.10;99.90;;;;;;4843696;29;20532;-88
2023/12/13 13:43:28;;;;;;;30.75;13.32;;;9.20;99.90;;;;;;4842656;29;20058;-88
2023/12/13 13:45:55;;;;;;;29.85;13.73;;;9.70;99.90;;;;;;4845930;29;20388;-89
2023/12/13 13:48:22;;;;;;;27.38;13.80;;;9.50;99.90;;;;;;4840679;29;20160;-88
2023/12/13 13:50:49;;;;;;;30.33;13.85;;;9.50;99.90;;;;;;4841506;29;20073;-87
2023/12/13 13:53:14;;;;;;;30.88;13.77;;;9.00;99.90;;;;;;4842712;29;20054;-87
2023/12/13 13:55:40;;;;;;;34.90;14.68;;;8.90;99.90;;;;;;4841802;29;20045;-88
2023/12/13 13:58:06;;;;;;;31.35;13.57;;;9.00;99.90;;;;;;4841854;29;20041;-86
2023/12/13 14:00:31;;;;;;;30.27;14.27;;;9.30;99.90;;;;;;4841980;29;20049;-85
2023/12/13 14:02:57;;;;;;;32.30;14.00;;;8.90;99.90;;;;;;4840253;29;20089;-86
2023/12/13 14:05:23;;;;;;;29.27;14.30;;;10.10;99.90;;;;;;4842133;29;20081;-85
2023/12/13 14:07:49;;;;;;;30.35;14.20;;;9.70;99.90;;;;;;4841517;29;20042;-85
2023/12/13 14:10:15;;;;;;;33.55;15.18;;;8.90;99.90;;;;;;4840199;29;20050;-84
2023/12/13 14:12:40;;;;;;;40.38;14.75;;;8.90;99.90;;;;;;4840990;29;20384;-84
2023/12/13 14:15:08;;;;;;;35.60;15.13;;;8.90;99.90;;;;;;4840864;29;20058;-84
2023/12/13 14:17:34;;;;;;;33.05;14.55;;;8.90;99.90;;;;;;4841380;29;20171;-84
2023/12/13 14:19:59;;;;;;;35.25;15.65;;;10.20;99.90;;;;;;4839952;29;20442;-84
2023/12/13 14:22:26;;;;;;;33.90;13.40;;;8.90;99.90;;;;;;4841426;29;20525;-84
2023/12/13 14:24:52;;;;;;;34.17;14.60;;;9.70;99.90;;;;;;4840178;29;20049;-84
2023/12/13 14:27:19;;;;;;;34.70;13.52;;;9.20;99.90;;;;;;4839793;29;20066;-82
2023/12/13 14:29:44;;;;;;;34.40;13.90;;;10.10;99.90;;;;;;4839676;29;20497;-84
2023/12/13 14:32:10;;;;;;;36.50;13.77;;;8.70;99.90;;;;;;4839358;29;20108;-84
2023/12/13 14:34:38;;;;;;;28.52;12.93;;;8.70;99.90;;;;;;4840282;29;20050;-86
2023/12/13 14:37:42;;;;;;;34.47;13.27;;;9.30;99.90;;;;;;4828183;29;20057;-84
2023/12/13 14:40:14;;;;;;;29.15;13.15;;;9.90;99.90;;;;;;4839695;29;20128;-84
2023/12/13 14:42:41;;;;;;;32.35;14.05;;;8.60;99.90;;;;;;4839630;29;20058;-87
2023/12/13 14:45:07;;;;;;;33.53;15.00;;;8.50;99.90;;;;;;4838528;29;20067;-86
2023/12/13 14:47:33;;;;;;;34.53;14.82;;;8.50;99.90;;;;;;4839479;29;20046;-85
2023/12/13 14:49:58;;;;;;;42.95;15.75;;;8.40;99.90;;;;;;4834121;29;20103;-85
2023/12/13 14:52:24;;;;;;;35.42;14.50;;;8.50;99.90;;;;;;4838840;29;20106;-85
2023/12/13 14:54:50;;;;;;;37.08;14.73;;;8.50;99.90;;;;;;4840100;29;20129;-85
2023/12/13 14:57:17;;;;;;;32.38;14.35;;;8.40;99.90;;;;;;4839275;29;20046;-86
2023/12/13 14:59:49;;;;;;;32.72;14.85;;;8.40;99.90;;;;;;4839171;29;20376;-86
2023/12/13 15:02:14;;;;;;;36.08;14.80;;;9.60;99.90;;;;;;4840183;29;20502;-85
2023/12/13 15:04:40;;;;;;;36.97;15.25;;;8.60;99.90;;;;;;4843691;29;20133;-86
2023/12/13 15:07:05;;;;;;;32.13;14.05;;;8.60;99.90;;;;;;4842419;29;20050;-85
2023/12/13 15:09:34;;;;;;;25.70;11.55;;;8.30;99.90;;;;;;4843604;29;20042;-87
2023/12/13 15:12:03;;;;;;;14.18;4.50;;;8.30;99.90;;;;;;4860410;29;20046;-86
2023/12/13 15:14:30;;;;;;;10.98;4.28;;;8.10;99.90;;;;;;4855948;29;20538;-86
2023/12/13 15:16:58;;;;;;;9.50;3.63;;;8.20;99.90;;;;;;4846587;29;20498;-86
2023/12/13 15:19:24;;;;;;;10.32;3.97;;;7.90;99.90;;;;;;4863168;29;20256;-85
2023/12/13 15:21:50;;;;;;;9.73;3.70;;;8.60;99.90;;;;;;4861632;29;20403;-86
2023/12/13 15:24:16;;;;;;;8.93;3.65;;;7.70;99.90;;;;;;4845366;29;20473;-86
2023/12/13 15:26:50;;;;;;;9.73;3.50;;;7.80;99.90;;;;;;4844620;29;20042;-86
2023/12/13 15:29:16;;;;;;;9.73;3.73;;;8.30;99.90;;;;;;4842557;29;20538;-85
2023/12/13 15:31:42;;;;;;;9.87;3.90;;;8.80;99.90;;;;;;4845914;29;20133;-84
2023/12/13 15:34:12;;;;;;;10.33;4.10;;;7.60;99.90;;;;;;4844701;29;20128;-85
2023/12/13 15:36:56;;;;;;;10.50;4.60;;;9.10;99.90;;;;;;4847434;29;20082;-84
2023/12/13 15:39:34;;;;;;;;;;;7.80;99.90;;;;;;4846165;29;20064;-85
2023/12/13 15:42:27;;;;;;;11.63;4.87;;;7.60;99.90;;;;;;4844074;29;19924;-85
2023/12/13 15:45:24;;;;;;;12.23;5.07;;;7.60;99.90;;;;;;4845314;29;20410;-86
2023/12/13 15:48:01;;;;;;;11.63;5.23;;;7.10;99.90;;;;;;4843658;29;20068;-85
2023/12/13 15:50:26;;;;;;;12.10;5.07;;;7.20;99.90;;;;;;5092714;24;20110;-85
2023/12/13 15:53:10;;;;;;;12.20;5.17;;;8.70;99.90;;;;;;4835794;29;20469;-85
2023/12/13 15:55:42;;;;;;;13.20;5.30;;;7.00;99.90;;;;;;4824121;29;20065;-88
2023/12/13 15:58:23;;;;;;;12.27;4.73;;;7.10;99.90;;;;;;4839667;29;20046;-88
2023/12/13 16:00:49;;;;;;;12.47;5.20;;;7.50;99.90;;;;;;4915505;24;20046;-86
2023/12/13 16:03:14;;;;;;;13.17;5.73;;;7.40;99.90;;;;;;4834314;29;20038;-87
2023/12/13 16:12:37;;;;;;;12.80;5.37;;;7.10;99.90;;;;;;4850945;29;20133;-88
2023/12/13 16:15:12;;;;;;;13.33;5.53;;;7.70;99.90;;;;;;4851474;29;20052;-88
2023/12/13 16:17:49;;;;;;;12.60;5.23;;;8.30;99.90;;;;;;4821029;29;20057;-90
2023/12/13 16:20:22;;;;;;;13.40;6.03;;;6.90;99.90;;;;;;4826365;29;20128;-86
2023/12/13 16:22:48;;;;;;;16.37;6.70;;;6.80;99.90;;;;;;4819925;29;20046;-87
2023/12/13 16:25:25;;;;;;;15.70;6.23;;;7.50;99.90;;;;;;4829311;29;20042;-92
2023/12/13 16:27:51;;;;;;;12.67;5.20;;;8.20;99.90;;;;;;4835523;24;20057;-87
2023/12/13 16:30:17;;;;;;;12.10;5.30;;;6.70;99.90;;;;;;4823295;29;20054;-88
2023/12/13 16:32:43;;;;;;;12.47;5.43;;;7.10;99.90;;;;;;4826097;29;20612;-88
2023/12/13 16:35:09;;;;;;;12.53;5.50;;;7.50;99.90;;;;;;4823833;29;20042;-87
2023/12/13 16:37:38;;;;;;;14.40;5.43;;;6.70;99.90;;;;;;4823192;29;20050;-87
2023/12/13 16:40:05;;;;;;;15.50;5.70;;;6.60;99.90;;;;;;4839838;29;20058;-87
2023/12/13 16:42:31;;;;;;;15.03;5.60;;;6.60;99.90;;;;;;4827481;29;20058;-87
2023/12/13 16:45:39;;;;;;;13.27;5.93;;;6.50;99.90;;;;;;4840804;29;20105;-89